Time;durP1;ratioP1;P1;durP2;ratioP2;P2;SDS_P1;SDS_P2;PMS_P1;PMS_P2;Temp;Humidity;BMP_temperature;BMP_pressure;BME280_temperature;BME280_humidity;BME280_pressure;Samples;Min_cycle;Max_cycle;Signal;HPM_P1;HPM_P2
2023/03/07 00:00:50;;;;;;;22.02;12.10;;;;;;;5.24;59.63;98679.13;4888389;29;20035;-92
2023/03/07 00:03:16;;;;;;;16.40;10.00;;;;;;;5.31;60.42;98694.94;4888699;29;20602;-92
2023/03/07 00:05:42;;;;;;;23.02;11.50;;;;;;;5.09;59.85;98681.63;4888515;29;20023;-93
2023/03/07 00:08:08;;;;;;;26.80;11.50;;;;;;;5.24;59.61;98679.91;4903330;29;20028;-92
2023/03/07 00:10:40;;;;;;;22.50;11.45;;;;;;;5.17;60.11;98670.50;4888015;29;20032;-92
2023/03/07 00:13:06;;;;;;;24.08;11.10;;;;;;;5.18;60.06;98688.91;4887866;29;20024;-92
2023/03/07 00:15:31;;;;;;;20.30;11.95;;;;;;;5.09;60.02;98666.41;4888033;29;20067;-92
2023/03/07 00:17:57;;;;;;;24.48;12.35;;;;;;;5.12;59.94;98670.44;4887899;29;20546;-92
2023/03/07 00:20:26;;;;;;;23.52;11.48;;;;;;;5.07;60.68;98672.00;4887877;29;20114;-93
2023/03/07 00:22:52;;;;;;;23.38;12.27;;;;;;;5.12;60.61;98675.78;4887930;29;20144;-92
2023/03/07 00:25:18;;;;;;;23.88;12.93;;;;;;;5.07;60.53;98677.31;4903987;29;20518;-92
2023/03/07 00:27:43;;;;;;;20.85;12.20;;;;;;;5.05;60.45;98673.31;4888050;29;20463;-93
2023/03/07 00:30:11;;;;;;;23.70;12.23;;;;;;;4.91;60.79;98648.06;4888031;29;20024;-92
2023/03/07 00:32:37;;;;;;;18.52;11.45;;;;;;;4.90;61.49;98662.44;4890896;29;20457;-92
2023/03/07 00:35:05;;;;;;;24.95;12.43;;;;;;;4.86;61.54;98668.28;4891554;29;20028;-93
2023/03/07 00:37:33;;;;;;;25.88;13.13;;;;;;;4.71;61.62;98649.44;4893087;29;20055;-92
2023/03/07 00:40:08;;;;;;;21.92;12.52;;;;;;;4.88;61.09;98665.38;4892511;29;20032;-92
2023/03/07 00:42:36;;;;;;;22.23;12.25;;;;;;;4.84;60.94;98645.59;4892781;29;20528;-92
2023/03/07 00:45:05;;;;;;;20.17;11.88;;;;;;;4.84;61.42;98664.25;4891604;29;20395;-92
2023/03/07 00:47:31;;;;;;;25.67;12.27;;;;;;;4.78;61.48;98644.72;4888653;29;20092;-92
2023/03/07 00:49:57;;;;;;;23.73;12.88;;;;;;;4.88;61.54;98661.88;4873220;29;20027;-92
2023/03/07 00:52:22;;;;;;;24.33;12.10;;;;;;;4.82;61.42;98643.16;4872502;29;20024;-92
2023/03/07 00:54:48;;;;;;;22.15;11.55;;;;;;;4.75;61.85;98647.88;4872733;29;20024;-91
2023/03/07 00:57:19;;;;;;;24.00;11.80;;;;;;;4.73;62.02;98643.84;4872494;29;20066;-92
2023/03/07 00:59:45;;;;;;;21.33;12.57;;;;;;;4.76;61.76;98651.34;4872801;29;20121;-92
2023/03/07 01:02:11;;;;;;;26.63;12.98;;;;;;;4.84;61.36;98645.59;4873025;29;20036;-93
2023/03/07 01:04:42;;;;;;;27.00;12.70;;;;;;;4.67;62.22;98632.31;4872296;29;20031;-92
2023/03/07 01:07:08;;;;;;;26.27;12.43;;;;;;;4.43;62.54;98624.53;4873781;29;20115;-92
2023/03/07 01:09:33;;;;;;;22.80;11.48;;;;;;;4.64;62.09;98636.25;4872891;29;20030;-92
2023/03/07 01:11:59;;;;;;;24.67;12.15;;;;;;;4.62;61.95;98608.25;4873084;29;20035;-92
2023/03/07 01:14:25;;;;;;;20.38;11.52;;;;;;;4.79;61.36;98630.34;4872428;29;20020;-92
2023/03/07 01:17:04;;;;;;;26.00;11.90;;;;;;;4.81;61.51;98632.72;4872058;29;20036;-92
2023/03/07 01:19:30;;;;;;;24.80;12.20;;;;;;;4.78;62.26;98626.03;4873707;29;20035;-92
2023/03/07 01:21:56;;;;;;;20.70;11.70;;;;;;;4.54;61.96;98604.16;4872898;29;20500;-92
2023/03/07 01:24:22;;;;;;;25.60;12.52;;;;;;;4.55;62.33;98627.09;4872385;29;20119;-93
2023/03/07 01:26:48;;;;;;;21.25;11.60;;;;;;;4.36;63.24;98605.28;4871808;29;20036;-92
2023/03/07 01:29:13;;;;;;;21.58;12.57;;;;;;;4.43;62.98;98619.22;4854974;29;20076;-92
2023/03/07 01:31:39;;;;;;;25.58;12.68;;;;;;;4.28;62.73;98600.38;4853886;29;20024;-92
2023/03/07 01:34:08;;;;;;;26.23;13.10;;;;;;;4.34;63.12;98609.25;4853890;29;20487;-92
2023/03/07 01:36:37;;;;;;;23.38;12.75;;;;;;;4.17;63.14;98590.59;4854304;29;20184;-92
2023/03/07 01:39:16;;;;;;;26.10;13.85;;;;;;;4.33;63.05;98611.09;4854681;29;20029;-92
2023/03/07 01:41:45;;;;;;;26.73;13.02;;;;;;;4.48;63.06;98605.13;4854605;29;20505;-92
2023/03/07 01:44:21;;;;;;;24.45;12.15;;;;;;;4.48;61.79;98593.69;4853276;29;20041;-92
2023/03/07 01:47:02;;;;;;;26.35;14.07;;;;;;;4.51;62.78;98607.31;4853645;29;20031;-92
2023/03/07 01:49:41;;;;;;;26.88;14.00;;;;;;;4.57;62.58;98595.66;4856031;29;20123;-91
2023/03/07 01:52:11;;;;;;;27.83;12.75;;;;;;;4.51;63.13;98587.88;4884567;29;20069;-92
2023/03/07 01:54:47;;;;;;;27.13;13.45;;;;;;;4.34;63.16;98586.06;4868377;29;20410;-92
2023/03/07 01:57:20;;;;;;;32.10;13.40;;;;;;;4.31;63.59;98573.22;4854402;29;20033;-91
2023/03/07 01:59:53;;;;;;;24.23;12.80;;;;;;;4.19;63.30;98565.34;4854029;29;20056;-93
2023/03/07 02:02:21;;;;;;;25.17;13.68;;;;;;;4.39;63.25;98577.31;4854150;29;20029;-93
2023/03/07 02:05:09;;;;;;;25.55;13.48;;;;;;;4.35;63.42;98576.19;4854157;29;20032;-93
2023/03/07 02:07:41;;;;;;;25.45;12.77;;;;;;;4.45;63.55;98582.47;4854795;29;20078;-92
2023/03/07 02:10:16;;;;;;;24.25;13.60;;;;;;;4.39;63.45;98579.97;4854390;29;20028;-91
2023/03/07 02:12:42;;;;;;;30.00;14.38;;;;;;;4.31;63.25;98572.41;4854728;29;20491;-93
2023/03/07 02:15:09;;;;;;;22.30;12.75;;;;;;;4.21;63.74;98557.09;4852684;29;20088;-92
2023/03/07 02:17:34;;;;;;;24.85;12.27;;;;;;;4.13;63.96;98554.84;4852786;29;20048;-91
2023/03/07 02:20:17;;;;;;;25.00;13.13;;;;;;;4.26;63.81;98578.50;4853108;29;20024;-93
2023/03/07 02:22:43;;;;;;;19.05;11.93;;;;;;;4.05;64.26;98564.91;4868136;29;20029;-92
2023/03/07 02:25:32;;;;;;;26.25;13.40;;;;;;;4.21;63.81;98579.22;4852776;29;20084;-92
2023/03/07 02:27:58;;;;;;;22.67;11.82;;;;;;;4.20;63.42;98564.28;4867789;29;20084;-92
2023/03/07 02:30:25;;;;;;;21.70;12.57;;;;;;;4.32;63.32;98582.84;4852779;29;20043;-92
2023/03/07 02:32:51;;;;;;;22.23;12.00;;;;;;;4.17;64.14;98570.13;4852669;29;20029;-93
2023/03/07 02:35:23;;;;;;;22.17;11.48;;;;;;;4.27;63.83;98580.09;4852609;29;20218;-92
2023/03/07 02:37:52;;;;;;;19.25;11.48;;;;;;;4.16;63.71;98578.34;4853425;29;20029;-92
2023/03/07 02:40:19;;;;;;;22.60;12.98;;;;;;;4.12;64.24;98574.56;4853084;29;20415;-90
2023/03/07 02:42:45;;;;;;;25.13;12.32;;;;;;;4.01;64.34;98573.63;4852471;29;20451;-92
2023/03/07 02:45:13;;;;;;;22.05;12.38;;;;;;;3.99;64.41;98576.53;4868208;29;20024;-93
2023/03/07 02:47:40;;;;;;;27.23;12.45;;;;;;;4.00;64.58;98575.47;4868113;29;20076;-92
2023/03/07 02:50:07;;;;;;;22.95;12.65;;;;;;;4.05;63.90;98572.88;4852109;29;20031;-91
2023/03/07 02:52:35;;;;;;;25.77;12.70;;;;;;;3.92;64.35;98564.44;4852089;29;20025;-92
2023/03/07 02:55:01;;;;;;;22.70;11.95;;;;;;;3.88;64.20;98556.16;4852519;29;20031;-92
2023/03/07 02:57:27;;;;;;;29.60;12.52;;;;;;;3.92;64.56;98583.06;4852312;29;20025;-92
2023/03/07 02:59:58;;;;;;;24.98;11.73;;;;;;;4.01;64.14;98577.09;4853190;29;20047;-94
2023/03/07 03:02:25;;;;;;;23.92;12.70;;;;;;;4.01;63.75;98573.63;4852412;29;20028;-91
2023/03/07 03:04:50;;;;;;;21.50;11.73;;;;;;;4.13;63.83;98563.69;4867528;29;20060;-92
2023/03/07 03:07:53;;;;;;;;;;;;;;;;;;;;;
2023/03/07 03:11:30;;;;;;;24.55;11.88;;;;;;;4.05;64.50;98569.41;4909631;29;20060;-96
2023/03/07 03:14:51;;;;;;;;;;;;;;;;;;;;;
2023/03/07 03:18:08;;;;;;;17.50;10.77;;;;;;;4.15;64.68;98580.22;4864400;29;20022;-96
2023/03/07 03:21:32;;;;;;;21.02;11.63;;;;;;;4.05;64.42;98558.78;4826712;29;20064;-94
2023/03/07 03:24:52;;;;;;;;;;;;;;;;;;;;;
2023/03/07 03:31:57;;;;;;;21.63;12.10;;;;;;;4.08;64.48;98584.91;4846606;29;20056;-96
2023/03/07 03:41:36;;;;;;;20.15;10.93;;;;;;;4.10;64.49;98584.66;4813080;29;19980;-94
2023/03/07 03:48:41;;;;;;;24.85;11.73;;;;;;;3.97;65.25;98580.50;4825152;29;20042;-96
2023/03/07 03:54:58;;;;;;;23.23;11.40;;;;;;;3.89;64.87;98554.28;4842454;29;20041;-96
2023/03/07 03:58:37;;;;;;;24.63;11.48;;;;;;;4.06;64.64;98584.34;4871023;29;20073;-95
2023/03/07 04:02:21;;;;;;;18.52;10.95;;;;;;;4.19;64.49;98578.69;4880725;29;20120;-95
2023/03/07 04:05:45;;;;;;;18.02;11.10;;;;;;;4.13;65.23;98590.31;4850140;29;20049;-95
2023/03/07 04:09:43;;;;;;;;;;;;;;;;;;;;;
2023/03/07 04:15:59;;;;;;;;;;;;;;;;;;;;;
2023/03/07 04:19:13;;;;;;;;;;;;;;;;;;;;;
2023/03/07 04:23:12;;;;;;;22.58;11.70;;;;;;;4.40;64.54;98587.75;5047300;23;20062;-94
2023/03/07 04:25:30;;;;;;;20.52;11.68;;;;;;;4.48;64.21;98573.16;4902574;29;20144;-96
2023/03/07 04:28:48;;;;;;;24.83;11.95;;;;;;;4.56;64.16;98590.56;4899394;29;20108;-95
2023/03/07 04:33:11;;;;;;;26.85;12.38;;;;;;;4.50;63.80;98586.25;4897572;29;20047;-95
2023/03/07 04:35:39;;;;;;;25.13;12.35;;;;;;;4.49;64.16;98593.44;4847354;29;20038;-96
2023/03/07 04:38:44;;;;;;;;;;;;;;;;;;;;;
2023/03/07 04:41:39;;;;;;;25.27;12.43;;;;;;;4.47;64.02;98586.75;4862616;29;20513;-95
2023/03/07 04:44:27;;;;;;;25.52;12.45;;;;;;;4.50;64.48;98595.03;4846729;29;20038;-95
2023/03/07 04:47:33;;;;;;;25.58;12.07;;;;;;;4.43;64.56;98589.88;4849260;29;20054;-96
2023/03/07 04:52:54;;;;;;;25.10;13.02;;;;;;;4.47;64.23;98592.88;4959181;23;20052;-94
2023/03/07 04:56:15;;;;;;;36.28;14.82;;;;;;;4.51;64.50;98596.66;4923547;29;20042;-96
2023/03/07 04:59:39;;;;;;;25.15;12.85;;;;;;;4.52;64.28;98589.47;4906926;29;20030;-95
2023/03/07 05:03:00;;;;;;;32.10;13.13;;;;;;;4.78;63.28;98604.72;4920530;29;20064;-94
2023/03/07 05:05:33;;;;;;;30.67;13.13;;;;;;;4.84;62.96;98602.91;4929202;29;20099;-94
2023/03/07 05:08:16;;;;;;;28.10;13.95;;;;;;;4.77;63.68;98599.63;4894393;29;20029;-94
2023/03/07 05:11:06;;;;;;;;;;;;;;;4.83;62.96;98611.97;4896171;29;20036;-94
2023/03/07 05:13:37;;;;;;;28.83;14.20;;;;;;;4.76;63.49;98600.69;4906432;29;19911;-93
2023/03/07 05:16:03;;;;;;;35.27;15.13;;;;;;;4.82;63.26;98586.34;4886754;29;20028;-93
2023/03/07 05:18:28;;;;;;;29.27;14.40;;;;;;;4.93;62.79;98600.59;4887462;29;20534;-93
2023/03/07 05:20:54;;;;;;;33.28;16.88;;;;;;;4.90;63.20;98596.56;4872916;29;20032;-92
2023/03/07 05:23:20;;;;;;;28.40;16.55;;;;;;;5.14;62.23;98601.63;4907319;29;20044;-93
2023/03/07 05:25:45;;;;;;;35.05;16.45;;;;;;;5.05;62.42;98590.59;4907014;29;20141;-92
2023/03/07 05:28:15;;;;;;;40.47;15.48;;;;;;;4.99;62.57;98581.72;4907199;29;20402;-92
2023/03/07 05:30:41;;;;;;;33.60;15.38;;;;;;;5.22;62.27;98596.63;4907479;29;20028;-92
2023/03/07 05:33:07;;;;;;;43.30;16.65;;;;;;;5.42;61.28;98593.34;4907563;29;20032;-94
2023/03/07 05:35:33;;;;;;;40.58;24.10;;;;;;;5.45;61.86;98600.03;4906747;29;20031;-93
2023/03/07 05:38:02;;;;;;;37.85;17.98;;;;;;;5.51;61.37;98599.03;4907092;29;20402;-94
2023/03/07 05:40:28;;;;;;;38.30;16.42;;;;;;;5.62;61.39;98602.56;4907846;29;20114;-93
2023/03/07 05:42:53;;;;;;;38.13;17.35;;;;;;;5.49;61.49;98601.13;4908128;29;20413;-90
2023/03/07 05:45:20;;;;;;;37.55;17.40;;;;;;;5.51;61.33;98599.03;4904956;29;20035;-92
2023/03/07 05:47:45;;;;;;;39.05;17.95;;;;;;;5.65;61.30;98586.06;4890606;29;20022;-92
2023/03/07 05:50:11;;;;;;;105.13;89.43;;;;;;;5.82;60.86;98593.91;4890205;29;20043;-91
2023/03/07 05:52:36;;;;;;;54.10;30.30;;;;;;;5.88;60.85;98614.28;4887969;29;20052;-91
2023/03/07 05:55:03;;;;;;;37.47;21.42;;;;;;;5.97;60.60;98611.94;4887035;29;20036;-92
2023/03/07 05:57:28;;;;;;;48.55;22.05;;;;;;;6.17;59.92;98613.97;4894676;29;20023;-92
2023/03/07 05:59:54;;;;;;;44.35;21.10;;;;;;;6.35;59.82;98618.88;4909346;29;20067;-93
2023/03/07 06:02:20;;;;;;;44.58;20.75;;;;;;;6.43;59.62;98609.53;4905596;29;20544;-92
2023/03/07 06:04:45;;;;;;;49.00;20.10;;;;;;;6.51;59.07;98594.88;4894528;29;20052;-92
2023/03/07 06:07:11;;;;;;;44.13;19.63;;;;;;;6.76;59.28;98628.94;4871764;29;20466;-92
2023/03/07 06:09:36;;;;;;;36.13;18.98;;;;;;;6.79;59.15;98617.75;4889779;29;20051;-93
2023/03/07 06:12:02;;;;;;;50.17;20.58;;;;;;;6.92;57.89;98609.22;4873417;29;20036;-91
2023/03/07 06:14:58;;;;;;;52.55;22.88;;;;;;;6.97;58.66;98606.56;4890565;29;20507;-93
2023/03/07 06:17:52;;;;;;;63.70;30.77;;;;;;;7.03;58.88;98621.53;4889949;29;20127;-95
2023/03/07 06:20:19;;;;;;;93.30;45.72;;;;;;;7.06;57.94;98606.84;4888983;29;20048;-93
2023/03/07 06:22:46;;;;;;;421.58;175.02;;;;;;;7.22;58.44;98624.56;4872831;29;20032;-92
2023/03/07 06:25:14;;;;;;;211.35;101.00;;;;;;;7.26;58.42;98627.47;4858731;29;20036;-94
2023/03/07 06:27:42;;;;;;;178.80;74.82;;;;;;;7.34;57.99;98613.56;4858755;29;20056;-96
2023/03/07 06:30:10;;;;;;;182.68;78.35;;;;;;;7.46;58.18;98618.69;4973385;23;20018;-94
2023/03/07 06:32:36;;;;;;;160.27;70.00;;;;;;;7.43;57.86;98614.66;4901292;29;20056;-95
2023/03/07 06:35:05;;;;;;;274.15;118.72;;;;;;;7.64;57.88;98628.88;4895809;29;20042;-94
2023/03/07 06:37:31;;;;;;;304.30;142.23;;;;;;;7.97;58.09;98634.78;4896213;29;20087;-94
2023/03/07 06:40:05;;;;;;;146.15;68.40;;;;;;;8.20;56.24;98641.44;4876458;29;20483;-95
2023/03/07 06:43:02;;;;;;;103.57;50.67;;;;;;;8.20;56.40;98633.41;4913149;29;20032;-95
2023/03/07 06:46:22;;;;;;;271.67;114.75;;;;;;;8.47;55.84;98649.19;5495682;23;20074;-93
2023/03/07 06:56:29;;;;;;;;;;;;;;;;;;;;;
2023/03/07 07:09:55;;;;;;;239.38;111.32;;;;;;;9.28;54.10;98638.41;5597510;23;20052;-95
2023/03/07 07:12:23;;;;;;;305.55;121.97;;;;;;;9.37;54.37;98649.34;4889440;29;20533;-92
2023/03/07 07:14:49;;;;;;;128.73;57.35;;;;;;;9.45;54.25;98638.81;4880493;29;20042;-93
2023/03/07 07:17:27;;;;;;;203.30;91.43;;;;;;;9.78;53.26;98652.56;4890472;29;20063;-92
2023/03/07 07:19:52;;;;;;;160.05;72.05;;;;;;;9.95;52.65;98656.72;4879726;29;20043;-95
2023/03/07 07:22:25;;;;;;;163.75;69.50;;;;;;;10.07;52.36;98635.66;4886990;29;20028;-93
2023/03/07 07:24:50;;;;;;;111.70;47.88;;;;;;;10.23;52.63;98636.28;4873548;29;20541;-93
2023/03/07 07:27:23;;;;;;;73.30;38.15;;;;;;;10.41;52.43;98657.13;4871657;29;20032;-94
2023/03/07 07:29:48;;;;;;;82.20;38.55;;;;;;;10.35;51.85;98638.63;4872107;29;20032;-93
2023/03/07 07:32:35;;;;;;;108.55;50.92;;;;;;;10.50;52.25;98641.19;4872343;29;20035;-92
2023/03/07 07:35:00;;;;;;;114.22;53.83;;;;;;;10.66;52.18;98658.75;4871079;29;20035;-93
2023/03/07 07:37:36;;;;;;;125.72;59.15;;;;;;;10.66;51.47;98642.59;4873191;29;20036;-93
2023/03/07 07:40:09;;;;;;;312.95;142.68;;;;;;;10.69;51.29;98633.16;4870950;29;20044;-93
2023/03/07 07:42:38;;;;;;;172.57;86.90;;;;;;;10.84;51.34;98637.56;4871971;29;20036;-92
2023/03/07 07:45:12;;;;;;;71.82;33.80;;;;;;;10.88;50.75;98649.34;4889624;29;20055;-92
2023/03/07 07:47:38;;;;;;;62.28;30.63;;;;;;;10.79;50.33;98626.81;4993294;23;20944;-95
2023/03/07 07:53:01;;;;;;;55.70;30.53;;;;;;;11.04;51.02;98641.84;4941316;29;20052;-93
2023/03/07 08:03:06;;;;;;;;;;;;;;;;;;;;;
2023/03/07 08:09:39;;;;;;;37.28;19.50;;;;;;;11.87;47.62;98655.75;4869912;29;20140;-95
2023/03/07 08:15:23;;;;;;;31.60;18.10;;;;;;;12.11;47.08;98647.56;4912521;29;20165;-94
2023/03/07 08:17:55;;;;;;;35.33;18.75;;;;;;;12.12;47.26;98633.00;4896604;29;20028;-96
2023/03/07 08:20:24;;;;;;;32.50;16.58;;;;;;;12.17;47.01;98621.31;4974417;23;20483;-95
2023/03/07 08:22:57;;;;;;;29.25;15.45;;;;;;;12.29;46.14;98624.31;4854306;29;20524;-96
2023/03/07 08:25:56;;;;;;;27.80;15.05;;;;;;;12.54;46.20;98637.34;4836876;29;20042;-95
2023/03/07 09:41:41;;;;;;;;;;;;;;;;;;;;;
2023/03/07 09:44:52;;;;;;;20.75;6.65;;;;;;;15.31;33.46;98597.22;4908560;29;20108;-95
2023/03/07 09:48:09;;;;;;;10.57;6.90;;;;;;;15.25;32.62;98574.09;4889062;29;20061;-94
2023/03/07 09:50:59;;;;;;;33.95;9.68;;;;;;;15.44;33.00;98585.44;4892893;29;20032;-95
2023/03/07 10:13:52;;;;;;;15.60;3.20;;;;;;;15.74;30.11;98542.16;4896694;29;19948;-96
2023/03/07 10:28:44;;;;;;;3.92;2.60;;;;;;;16.29;30.02;98535.09;4931499;28;20064;-95
2023/03/07 10:31:36;;;;;;;5.10;2.38;;;;;;;16.26;29.07;98522.19;4827022;29;20069;-94
2023/03/07 10:40:38;;;;;;;6.10;2.70;;;;;;;16.46;29.24;98528.81;5864252;23;20105;-94
2023/03/07 10:43:52;;;;;;;;;;;;;;;;;;;;;
2023/03/07 10:46:50;;;;;;;4.15;2.60;;;;;;;16.14;29.52;98512.81;4891743;29;20085;-94
2023/03/07 10:49:54;;;;;;;16.30;3.00;;;;;;;16.21;30.00;98512.31;4866789;29;20380;-95
2023/03/07 10:52:54;;;;;;;;;;;;;;;;;;;;;
2023/03/07 10:55:39;;;;;;;;;;;;;;;;;;;;;
2023/03/07 11:06:45;;;;;;;;;;;;;;;16.12;30.73;98500.66;5135697;23;20068;-92
2023/03/07 11:10:15;;;;;;;;;;;;;;;;;;;;;
2023/03/07 11:23:33;;;;;;;;;;;;;;;;;;;;;
2023/03/07 11:26:22;;;;;;;4.10;2.75;;;;;;;16.38;30.53;98457.06;4825083;29;20128;-95
2023/03/07 11:29:33;;;;;;;;;;;;;;;;;;;;;
2023/03/07 11:42:25;;;;;;;11.68;3.38;;;;;;;17.15;27.56;98416.81;4908975;29;20033;-95
2023/03/07 11:45:33;;;;;;;5.65;3.65;;;;;;;17.39;28.08;98434.34;4878229;29;20036;-94
2023/03/07 12:39:42;;;;;;;7.18;3.10;;;;;;;17.81;27.84;98393.34;4938736;29;20205;-95
2023/03/07 12:57:07;;;;;;;3.80;1.90;;;;;;;17.61;27.60;98388.78;5115077;23;20155;-95
2023/03/07 13:00:31;;;;;;;;;;;;;;;;;;;;;
2023/03/07 13:03:08;;;;;;;5.22;2.97;;;;;;;17.46;28.61;98388.31;4950343;29;20095;-95
2023/03/07 13:16:06;;;;;;;10.32;2.83;;;;;;;17.72;28.64;98398.06;4833222;29;20069;-94
2023/03/07 13:18:42;;;;;;;;;;;;;;;;;;;;;
2023/03/07 13:21:34;;;;;;;5.95;2.88;;;;;;;17.62;27.93;98395.78;4802586;29;20121;-95
2023/03/07 13:24:36;;;;;;;3.25;1.95;;;;;;;17.53;27.12;98396.69;4816321;29;20056;-95
2023/03/07 13:27:43;;;;;;;14.07;7.45;;;;;;;17.56;27.61;98392.53;4912218;29;20091;-96
2023/03/07 13:30:22;;;;;;;4.60;2.50;;;;;;;17.63;27.44;98391.97;4880580;29;20027;-95
2023/03/07 13:42:10;;;;;;;13.75;3.13;;;;;;;17.84;27.22;98386.44;4983314;23;20067;-94
2023/03/07 13:44:42;;;;;;;6.93;3.03;;;;;;;17.97;26.98;98383.38;4918228;29;20124;-94
2023/03/07 13:47:45;;;;;;;19.60;7.90;;;;;;;18.05;27.68;98389.81;4926344;29;20406;-94
2023/03/07 13:50:33;;;;;;;11.77;3.85;;;;;;;18.13;27.69;98385.38;4928963;29;20462;-93
2023/03/07 13:53:05;;;;;;;10.52;4.13;;;;;;;18.25;27.28;98384.59;4922142;29;20070;-93
2023/03/07 13:55:50;;;;;;;7.43;3.35;;;;;;;18.22;26.42;98360.72;4907561;29;20042;-95
2023/03/07 13:58:38;;;;;;;9.65;4.40;;;;;;;18.48;26.61;98376.69;4911748;29;20076;-94
2023/03/07 14:01:15;;;;;;;16.75;6.43;;;;;;;18.41;26.16;98373.75;4925110;29;20402;-94
2023/03/07 14:03:58;;;;;;;12.52;2.42;;;;;;;18.42;26.57;98365.22;4910572;29;20030;-94
2023/03/07 14:06:49;;;;;;;3.72;2.53;;;;;;;18.36;26.42;98359.25;4926652;29;20084;-94
2023/03/07 14:09:25;;;;;;;6.60;2.53;;;;;;;18.26;26.99;98361.63;4909478;29;20015;-93
2023/03/07 14:11:59;;;;;;;6.07;2.55;;;;;;;18.26;26.84;98369.81;4908742;29;20280;-93
2023/03/07 14:14:37;;;;;;;5.75;2.78;;;;;;;18.21;27.38;98364.59;4922731;29;20027;-94
2023/03/07 14:17:40;;;;;;;6.90;2.50;;;;;;;18.17;27.25;98372.66;4922006;29;20030;-93
2023/03/07 14:20:14;;;;;;;13.20;4.30;;;;;;;18.13;28.07;98375.28;4923572;29;20101;-93
2023/03/07 14:22:42;;;;;;;5.82;2.78;;;;;;;18.03;27.01;98370.28;4940610;29;20059;-93
2023/03/07 14:28:22;;;;;;;21.85;4.22;;;;;;;18.00;27.22;98379.16;4932386;29;20086;-94
2023/03/07 14:31:29;;;;;;;;;;;;;;;18.06;27.50;98377.78;4927399;29;20397;-93
2023/03/07 14:34:25;;;;;;;9.18;3.47;;;;;;;18.06;27.95;98377.00;4923267;29;19915;-93
2023/03/07 14:40:35;;;;;;;92.63;9.57;;;;;;;18.10;27.41;98375.97;4920659;29;20048;-96
2023/03/07 14:43:42;;;;;;;14.23;4.88;;;;;;;18.05;27.92;98359.84;4891489;29;20028;-93
2023/03/07 14:46:49;;;;;;;9.30;3.65;;;;;;;18.08;27.83;98372.78;4895371;29;20042;-94
2023/03/07 14:49:53;;;;;;;15.75;4.57;;;;;;;18.07;28.15;98371.19;4910075;29;20032;-95
2023/03/07 14:59:29;;;;;;;;;;;;;;;;;;;;;
2023/03/07 15:18:42;;;;;;;24.77;5.80;;;;;;;17.61;29.84;98370.50;5061696;23;20046;31
2023/03/07 15:22:19;;;;;;;31.63;6.40;;;;;;;17.54;29.74;98371.09;5468985;23;20055;-96
2023/03/07 15:33:30;;;;;;;52.42;9.73;;;;;;;17.23;31.48;98354.50;4922813;28;20044;-94
2023/03/07 15:36:18;;;;;;;30.27;6.90;;;;;;;17.31;31.02;98373.44;4895861;29;20051;-96
2023/03/07 15:38:48;;;;;;;24.85;6.72;;;;;;;17.35;31.43;98376.28;4891505;29;20067;-92
2023/03/07 15:47:59;;;;;;;35.57;9.57;;;;;;;17.31;32.00;98367.22;4920984;29;20034;-95
2023/03/07 15:52:00;;;;;;;40.30;10.07;;;;;;;17.17;32.02;98371.03;4885679;29;20284;-94
2023/03/07 15:55:07;;;;;;;;;;;;;;;;;;;;;
2023/03/07 16:33:38;;;;;;;29.30;12.02;;;;;;;15.35;36.51;98394.75;3240224;23;20228;-89
2023/03/07 16:36:16;;;;;;;30.58;10.50;;;;;;;15.12;36.44;98376.00;4880836;29;20116;-94
2023/03/07 16:39:17;;;;;;;27.00;10.13;;;;;;;15.17;35.58;98399.44;5070381;23;20051;-94
2023/03/07 16:42:16;;;;;;;19.95;9.90;;;;;;;15.09;35.39;98394.84;4898405;29;20082;-95
2023/03/07 16:55:01;;;;;;;15.00;8.27;;;;;;;14.67;36.08;98384.53;4919570;28;20052;-94
2023/03/07 16:57:27;;;;;;;14.27;8.57;;;;;;;14.65;35.81;98391.38;4891315;29;20028;-93
2023/03/07 16:59:53;;;;;;;14.27;8.80;;;;;;;14.65;35.68;98397.59;4879478;29;20068;-94
2023/03/07 17:02:36;;;;;;;20.50;11.27;;;;;;;14.73;35.94;98417.66;4873485;29;20047;-90
2023/03/07 17:05:02;;;;;;;36.10;15.32;;;;;;;14.67;36.39;98411.63;4904146;29;20032;-93
2023/03/07 17:07:28;;;;;;;36.38;18.20;;;;;;;14.71;36.55;98417.19;4889638;29;20027;-94
2023/03/07 17:09:57;;;;;;;42.38;19.33;;;;;;;14.59;36.81;98400.75;4889069;29;20491;-93
2023/03/07 17:12:25;;;;;;;35.83;18.90;;;;;;;14.61;37.00;98404.78;4888501;29;20036;-93
2023/03/07 17:14:59;;;;;;;99.15;17.80;;;;;;;14.67;37.47;98414.34;4894682;29;20104;-94
2023/03/07 17:17:37;;;;;;;37.03;13.90;;;;;;;14.57;37.51;98406.53;5046965;23;20148;-94
2023/03/07 17:20:27;;;;;;;;;;;;;;;;;;;;;
2023/03/07 17:23:10;;;;;;;26.95;11.88;;;;;;;14.52;38.15;98414.75;4923311;29;20118;-94
2023/03/07 17:28:13;;;;;;;23.08;12.35;;;;;;;14.43;38.72;98406.63;4992645;23;20051;-95
2023/03/07 17:30:46;;;;;;;41.15;10.77;;;;;;;14.36;38.77;98417.16;4893961;29;20040;-94
2023/03/07 17:33:15;;;;;;;34.30;15.50;;;;;;;14.31;39.34;98420.78;4892507;29;20422;-95
2023/03/07 17:35:44;;;;;;;37.40;13.93;;;;;;;14.37;39.32;98434.97;4892180;29;20395;-93
2023/03/07 17:38:15;;;;;;;20.60;11.13;;;;;;;14.30;39.10;98429.25;4893042;29;20089;-94
2023/03/07 17:41:34;;;;;;;28.98;12.20;;;;;;;14.18;39.62;98423.66;4893480;29;20569;-94
2023/03/07 17:43:58;;;;;;;27.67;11.70;;;;;;;14.06;39.41;98419.63;4913158;29;20042;-95
2023/03/07 17:46:27;;;;;;;32.28;13.65;;;;;;;13.99;39.56;98422.00;4894947;29;20039;-94
2023/03/07 17:48:53;;;;;;;21.80;10.85;;;;;;;13.79;39.96;98434.19;4897311;29;20024;-94
2023/03/07 17:51:24;;;;;;;22.52;13.52;;;;;;;13.68;40.12;98422.84;4896568;29;20039;-93
2023/03/07 17:53:50;;;;;;;31.90;16.73;;;;;;;13.71;39.31;98416.03;4900785;29;20040;-93
2023/03/07 17:56:19;;;;;;;21.92;11.20;;;;;;;13.67;39.95;98429.38;4894580;29;20126;-94
2023/03/07 17:58:47;;;;;;;18.42;10.77;;;;;;;13.51;40.49;98420.88;4895137;29;20057;-93
2023/03/07 18:01:15;;;;;;;25.95;12.40;;;;;;;13.72;41.09;98450.88;4895240;29;20035;-93
2023/03/07 18:03:46;;;;;;;30.38;12.82;;;;;;;13.62;41.16;98440.34;4895519;29;20087;-93
2023/03/07 18:06:36;;;;;;;29.15;13.48;;;;;;;13.60;41.17;98449.88;4894117;29;20031;-94
2023/03/07 18:09:04;;;;;;;40.42;15.18;;;;;;;13.56;41.43;98447.00;4895359;29;20155;-94
2023/03/07 18:11:40;;;;;;;37.58;15.07;;;;;;;13.44;42.21;98452.97;4892667;29;20023;-93
2023/03/07 18:14:12;;;;;;;27.92;14.35;;;;;;;13.34;42.22;98458.63;4895876;29;20032;-95
2023/03/07 18:16:42;;;;;;;30.05;13.15;;;;;;;13.10;42.53;98445.41;4893298;29;20023;-93
2023/03/07 18:19:14;;;;;;;31.48;17.58;;;;;;;13.10;43.07;98454.31;4893843;29;20091;-94
2023/03/07 18:21:43;;;;;;;35.28;18.83;;;;;;;13.01;43.01;98456.19;4893684;29;20031;-94
2023/03/07 18:24:21;;;;;;;40.63;19.60;;;;;;;12.91;43.56;98443.69;4892732;29;20035;-94
2023/03/07 18:26:51;;;;;;;46.00;20.70;;;;;;;12.92;44.15;98455.31;4892654;28;20062;-94
2023/03/07 18:29:19;;;;;;;49.25;21.33;;;;;;;12.82;44.44;98450.13;4894326;29;20458;-93
2023/03/07 18:31:56;;;;;;;59.53;20.58;;;;;;;12.76;44.38;98456.75;4893184;29;20024;-93
2023/03/07 18:34:30;;;;;;;45.50;18.88;;;;;;;12.73;44.13;98463.56;4908996;29;20043;-93
2023/03/07 18:37:02;;;;;;;37.13;19.45;;;;;;;12.78;44.20;98474.25;4893801;29;20063;-95
2023/03/07 18:39:31;;;;;;;33.67;16.23;;;;;;;12.66;44.66;98476.72;4892877;29;20140;-94
2023/03/07 18:41:57;;;;;;;39.78;15.93;;;;;;;12.54;44.83;98463.72;4894090;29;20067;-95
2023/03/07 18:44:26;;;;;;;40.97;15.27;;;;;;;12.48;45.03;98473.03;4891894;29;20545;-94
2023/03/07 18:46:53;;;;;;;27.52;15.20;;;;;;;12.41;45.40;98481.56;4892771;29;20119;-93
2023/03/07 18:49:22;;;;;;;26.13;14.07;;;;;;;12.36;45.66;98475.47;4891983;29;20027;-94
2023/03/07 18:51:53;;;;;;;39.92;15.10;;;;;;;12.33;45.95;98466.88;4892662;29;20019;-92
2023/03/07 18:54:47;;;;;;;32.95;15.45;;;;;;;12.26;46.13;98474.56;4909862;29;20031;-95
2023/03/07 18:57:28;;;;;;;30.27;12.88;;;;;;;12.16;45.68;98473.97;4942633;29;20035;-94
2023/03/07 19:00:35;;;;;;;19.52;9.55;;;;;;;11.97;45.44;98464.06;4925921;29;20039;-95
2023/03/07 19:03:17;;;;;;;21.55;8.75;;;;;;;11.97;45.40;98474.88;4956113;29;20027;-95
2023/03/07 19:06:02;;;;;;;10.65;5.80;;;;;;;11.86;44.72;98471.53;4938624;29;20035;-95
2023/03/07 19:08:47;;;;;;;12.68;6.75;;;;;;;11.77;45.20;98477.94;4924529;29;20027;-95
2023/03/07 19:11:18;;;;;;;16.85;7.63;;;;;;;11.80;45.09;98480.81;4923408;29;20032;-93
2023/03/07 19:13:52;;;;;;;25.80;10.37;;;;;;;11.79;45.70;98478.44;4907511;29;20023;-93